Accueil
METAR-TAF:

METAR-TAF

Aéroports :

Aéroport de Cannes - Mandelieu

Cannes, France

latitude: 43-33N, longitude: 006-57E, altitude: 3 m

Observation

Le bulletin a été fait il y a 43 minutes, à 10:00 UTC
Vent 1 kt de direction variable
Température 17°C
Humidité 88%
Pression 1018 hPa
Visibilité: 6000 m
pluie faible

METAR: LFMD 161000Z AUTO VRB01KT 6000 -RA FEW033/// BKN044/// BKN058/// ///TCU 17/15 Q1018 TEMPO RA BECMG SCT040 OVC070

Heure: 12:43 (10:43 UTC)

Prévision

Le bulletin a été fait il y a 2 heures et 43 minutes, à 08:00 UTC
Prévision valable du 16 à 09 UTC au 17 à 09 UTC
Vent 10 kt de est
Visibilité 10 km ou plus
Nuages épars à une hauteur de 4000 ft
Ciel couvert à une hauteur de 7000 ft
Evoluant progressivement
du 16 à 16 UTC au 16 à 18 UTC
Vent 8 kt de ouest/nord-ouest
Temporairement
du 16 à 09 UTC au 17 à 09 UTC
pluie

TAF: LFMD 160800Z 1609/1709 09010KT 9999 SCT040 OVC070 BECMG 1616/1618 30008KT TEMPO 1609/1709 RA

Observations et prévisions météorologiques de plus de 4000 aéroports (messages METAR et TAF).

Les stations disponibles sont représentées par des disques jaunes et rouges sur la carte.

Passer la souris dessus pour voir le nom de la station.

Cliquer dessus pour voir les observations et prévisions météorologiques.

Pour changer de carte: cliquez sur les boutons verts avec une croix noire pour zoomer, sur le bouton vert avec un tiret pour effectuer un zoom arrière, ou sur les flèches vertes pour les cartes adjacentes.


METAR-TAF: